Helena Regional Airport
KHLN : now visible

Airfield :











YOU CAN JOIN US ON...

 
LOGIN :

Register | Disclaimer

   EN    FR    IT 

 









Legend :    VFR   Marginal VFR   IFR   Intensive IFR   Very Intensive IFR
Visi :
Ceiling :
>= 8 km
>= 3000ft
5 to 8 km
1000 to 3000 ft
1500m to 5 km
500 to 1000 ft
800 to 1500m
200 to 500 ft
< 800m
< 200 ft
Symbols :   Thunderstorms  Fog  Heavy snow  Heavy precipitations  Wind > 20 kt







- Airport Elevation : 3877 ft
- IATA code : HLN


KHLN - Helena Regional

CURRENT METAR :
  • 260253Z 29011KT 10SM 18/03 A3004 RMK AO2 SLP167 T01780028 53015 $

EXPIRED METARs :
  • 260153Z 33008KT 10SM 18/04 A3002 RMK AO2 PK WND 29027/0103 SLP160 T01830044 $
  • 260053Z 28018G26KT 10SM 21/01 A3001 RMK AO2 PK WND 28031/2355 SLP152 T02110011 $

TAF KHLN
Valid from the 26 at 00:00 until the 27 at 00:00 UTC


252320Z 2600/2624 30015G23KT P6SM SCT070 SCT110
FM260300 VRB06KT P6SM SCT070
FM261600 30011G19KT P6SM FEW070 SCT100
No reported NOTAMs for that airfield.



MET'MAP, your aeronautical weather chart ! - Copyright ORBIFLY December 2007 - Disclaimer

ORBIFLY MET'MAP TEAM :

Programming & Development : Alexandra Zaïnal
Concept & Development : Baudouin d'Aumeries
Co-Development & Prog : Marc-Olivier Méhu
Technical & hardware support : Manuel Goepfert

Contact : metmap@orbifly.com




SOURCES & CREDITS :

   NOAA       Earth
Advisory